sensor_id;sensor_type;location;lat;lon;timestamp;temperature;humidity
16801;DHT22;8518;53.236;10.384;2023-04-25T00:00:20;7.60;99.90
16801;DHT22;8518;53.236;10.384;2023-04-25T00:06:08;7.60;99.90
16801;DHT22;8518;53.236;10.384;2023-04-25T00:08:34;7.60;99.90
16801;DHT22;8518;53.236;10.384;2023-04-25T00:11:02;7.60;99.90
16801;DHT22;8518;53.236;10.384;2023-04-25T00:16:51;7.60;99.90
16801;DHT22;8518;53.236;10.384;2023-04-25T00:19:17;7.60;99.90
16801;DHT22;8518;53.236;10.384;2023-04-25T00:21:44;7.90;99.90
16801;DHT22;8518;53.236;10.384;2023-04-25T00:27:43;7.60;99.90
16801;DHT22;8518;53.236;10.384;2023-04-25T00:30:12;8.40;99.90
16801;DHT22;8518;53.236;10.384;2023-04-25T00:32:38;7.60;99.90
16801;DHT22;8518;53.236;10.384;2023-04-25T00:35:04;7.60;99.90
16801;DHT22;8518;53.236;10.384;2023-04-25T00:37:32;7.60;99.90
16801;DHT22;8518;53.236;10.384;2023-04-25T00:39:58;7.60;99.90
16801;DHT22;8518;53.236;10.384;2023-04-25T00:42:30;7.50;99.90
16801;DHT22;8518;53.236;10.384;2023-04-25T00:44:55;7.50;99.90
16801;DHT22;8518;53.236;10.384;2023-04-25T00:47:24;7.30;99.90
16801;DHT22;8518;53.236;10.384;2023-04-25T00:49:53;8.70;99.90
16801;DHT22;8518;53.236;10.384;2023-04-25T00:52:20;7.50;99.90
16801;DHT22;8518;53.236;10.384;2023-04-25T00:54:49;7.60;99.90
16801;DHT22;8518;53.236;10.384;2023-04-25T00:57:15;7.50;99.90
16801;DHT22;8518;53.236;10.384;2023-04-25T00:59:43;8.20;99.90
16801;DHT22;8518;53.236;10.384;2023-04-25T01:02:10;7.50;99.90
16801;DHT22;8518;53.236;10.384;2023-04-25T01:07:58;7.40;99.90
16801;DHT22;8518;53.236;10.384;2023-04-25T01:10:24;7.40;99.90
16801;DHT22;8518;53.236;10.384;2023-04-25T01:16:15;7.30;99.90
16801;DHT22;8518;53.236;10.384;2023-04-25T01:22:03;7.30;99.90
16801;DHT22;8518;53.236;10.384;2023-04-25T01:27:52;7.30;99.90
16801;DHT22;8518;53.236;10.384;2023-04-25T01:30:19;7.30;99.90
16801;DHT22;8518;53.236;10.384;2023-04-25T01:36:09;7.30;99.90
16801;DHT22;8518;53.236;10.384;2023-04-25T01:38:37;8.10;99.90
16801;DHT22;8518;53.236;10.384;2023-04-25T01:41:03;8.10;99.90
16801;DHT22;8518;53.236;10.384;2023-04-25T01:46:55;7.20;99.90
16801;DHT22;8518;53.236;10.384;2023-04-25T01:49:20;7.20;99.90
16801;DHT22;8518;53.236;10.384;2023-04-25T01:51:46;7.20;99.90
16801;DHT22;8518;53.236;10.384;2023-04-25T01:57:34;7.20;99.90
16801;DHT22;8518;53.236;10.384;2023-04-25T02:03:21;7.10;99.90
16801;DHT22;8518;53.236;10.384;2023-04-25T02:05:50;7.10;99.90
16801;DHT22;8518;53.236;10.384;2023-04-25T02:08:16;7.60;99.90
16801;DHT22;8518;53.236;10.384;2023-04-25T02:10:43;7.00;99.90
16801;DHT22;8518;53.236;10.384;2023-04-25T02:16:32;7.00;99.90
16801;DHT22;8518;53.236;10.384;2023-04-25T02:22:19;7.00;99.90
16801;DHT22;8518;53.236;10.384;2023-04-25T02:24:46;7.00;99.90
16801;DHT22;8518;53.236;10.384;2023-04-25T02:27:14;7.00;99.90
16801;DHT22;8518;53.236;10.384;2023-04-25T02:29:40;7.00;99.90
16801;DHT22;8518;53.236;10.384;2023-04-25T02:32:06;7.00;99.90
16801;DHT22;8518;53.236;10.384;2023-04-25T02:37:54;7.00;99.90
16801;DHT22;8518;53.236;10.384;2023-04-25T02:40:20;6.90;99.90
16801;DHT22;8518;53.236;10.384;2023-04-25T02:46:07;6.90;99.90
16801;DHT22;8518;53.236;10.384;2023-04-25T02:48:33;6.90;99.90
16801;DHT22;8518;53.236;10.384;2023-04-25T02:50:59;6.90;99.90
16801;DHT22;8518;53.236;10.384;2023-04-25T02:56:47;6.90;99.90
16801;DHT22;8518;53.236;10.384;2023-04-25T02:59:12;6.80;99.90
16801;DHT22;8518;53.236;10.384;2023-04-25T03:01:38;6.70;99.90
16801;DHT22;8518;53.236;10.384;2023-04-25T03:04:05;6.60;99.90
16801;DHT22;8518;53.236;10.384;2023-04-25T03:06:31;6.60;99.90
16801;DHT22;8518;53.236;10.384;2023-04-25T03:08:56;6.60;99.90
16801;DHT22;8518;53.236;10.384;2023-04-25T03:11:25;6.50;99.90
16801;DHT22;8518;53.236;10.384;2023-04-25T03:17:12;6.50;99.90
16801;DHT22;8518;53.236;10.384;2023-04-25T03:19:38;6.40;99.90
16801;DHT22;8518;53.236;10.384;2023-04-25T03:22:04;6.40;99.90
16801;DHT22;8518;53.236;10.384;2023-04-25T03:27:51;6.30;99.90
16801;DHT22;8518;53.236;10.384;2023-04-25T03:30:17;6.50;99.90
16801;DHT22;8518;53.236;10.384;2023-04-25T03:32:42;6.50;99.90
16801;DHT22;8518;53.236;10.384;2023-04-25T03:35:11;7.40;99.90
16801;DHT22;8518;53.236;10.384;2023-04-25T03:37:37;6.30;99.90
16801;DHT22;8518;53.236;10.384;2023-04-25T03:40:03;6.30;99.90
16801;DHT22;8518;53.236;10.384;2023-04-25T03:42:29;6.30;99.90
16801;DHT22;8518;53.236;10.384;2023-04-25T03:44:56;7.80;99.90
16801;DHT22;8518;53.236;10.384;2023-04-25T03:47:22;6.40;99.90
16801;DHT22;8518;53.236;10.384;2023-04-25T03:49:47;6.50;99.90
16801;DHT22;8518;53.236;10.384;2023-04-25T03:52:14;6.40;99.90
16801;DHT22;8518;53.236;10.384;2023-04-25T03:54:40;6.40;99.90
16801;DHT22;8518;53.236;10.384;2023-04-25T03:57:09;6.30;99.90
16801;DHT22;8518;53.236;10.384;2023-04-25T03:59:38;6.40;99.90
16801;DHT22;8518;53.236;10.384;2023-04-25T04:02:04;6.40;99.90
16801;DHT22;8518;53.236;10.384;2023-04-25T04:04:30;6.30;99.90
16801;DHT22;8518;53.236;10.384;2023-04-25T04:06:58;6.30;99.90
16801;DHT22;8518;53.236;10.384;2023-04-25T04:09:24;6.20;99.90
16801;DHT22;8518;53.236;10.384;2023-04-25T04:11:53;6.10;99.90
16801;DHT22;8518;53.236;10.384;2023-04-25T04:17:41;6.00;99.90
16801;DHT22;8518;53.236;10.384;2023-04-25T04:20:07;6.20;99.90
16801;DHT22;8518;53.236;10.384;2023-04-25T04:22:35;5.90;99.90
16801;DHT22;8518;53.236;10.384;2023-04-25T04:25:01;5.80;99.90
16801;DHT22;8518;53.236;10.384;2023-04-25T04:27:28;5.70;99.90
16801;DHT22;8518;53.236;10.384;2023-04-25T04:29:54;5.70;99.90
16801;DHT22;8518;53.236;10.384;2023-04-25T04:32:23;5.60;99.90
16801;DHT22;8518;53.236;10.384;2023-04-25T04:34:49;5.60;99.90
16801;DHT22;8518;53.236;10.384;2023-04-25T04:37:14;6.10;99.90
16801;DHT22;8518;53.236;10.384;2023-04-25T04:39:43;5.60;99.90
16801;DHT22;8518;53.236;10.384;2023-04-25T04:42:09;5.60;99.90
16801;DHT22;8518;53.236;10.384;2023-04-25T04:47:58;5.60;99.90
16801;DHT22;8518;53.236;10.384;2023-04-25T04:50:24;5.70;99.90
16801;DHT22;8518;53.236;10.384;2023-04-25T04:56:12;5.60;99.90
16801;DHT22;8518;53.236;10.384;2023-04-25T04:58:37;5.70;99.90
16801;DHT22;8518;53.236;10.384;2023-04-25T05:01:03;5.70;99.90
16801;DHT22;8518;53.236;10.384;2023-04-25T05:03:32;5.70;99.90
16801;DHT22;8518;53.236;10.384;2023-04-25T05:05:58;5.80;99.90
16801;DHT22;8518;53.236;10.384;2023-04-25T05:08:24;5.80;99.90
16801;DHT22;8518;53.236;10.384;2023-04-25T05:10:49;5.80;99.90
16801;DHT22;8518;53.236;10.384;2023-04-25T05:16:37;5.90;99.90
16801;DHT22;8518;53.236;10.384;2023-04-25T05:19:13;6.00;99.90
16801;DHT22;8518;53.236;10.384;2023-04-25T05:21:38;6.10;99.90
16801;DHT22;8518;53.236;10.384;2023-04-25T05:27:29;6.40;99.90
16801;DHT22;8518;53.236;10.384;2023-04-25T05:33:17;6.70;99.90
16801;DHT22;8518;53.236;10.384;2023-04-25T05:35:42;6.80;99.90
16801;DHT22;8518;53.236;10.384;2023-04-25T05:38:08;5.80;99.90
16801;DHT22;8518;53.236;10.384;2023-04-25T05:40:34;6.70;99.90
16801;DHT22;8518;53.236;10.384;2023-04-25T05:46:23;7.00;99.90
16801;DHT22;8518;53.236;10.384;2023-04-25T05:48:49;7.30;99.90
16801;DHT22;8518;53.236;10.384;2023-04-25T05:51:14;7.40;99.90
16801;DHT22;8518;53.236;10.384;2023-04-25T05:57:02;7.60;99.90
16801;DHT22;8518;53.236;10.384;2023-04-25T05:59:31;7.80;99.90
16801;DHT22;8518;53.236;10.384;2023-04-25T06:01:57;7.60;99.90
16801;DHT22;8518;53.236;10.384;2023-04-25T06:04:22;7.70;99.90
16801;DHT22;8518;53.236;10.384;2023-04-25T06:06:49;7.60;99.90
16801;DHT22;8518;53.236;10.384;2023-04-25T06:09:15;8.70;99.90
16801;DHT22;8518;53.236;10.384;2023-04-25T06:11:44;7.70;99.90
16801;DHT22;8518;53.236;10.384;2023-04-25T06:17:32;7.50;99.90
16801;DHT22;8518;53.236;10.384;2023-04-25T06:23:33;7.40;99.90
16801;DHT22;8518;53.236;10.384;2023-04-25T06:25:59;7.30;99.90
16801;DHT22;8518;53.236;10.384;2023-04-25T06:28:25;7.30;99.90
16801;DHT22;8518;53.236;10.384;2023-04-25T06:30:53;7.90;99.90
16801;DHT22;8518;53.236;10.384;2023-04-25T06:36:41;7.40;99.90
16801;DHT22;8518;53.236;10.384;2023-04-25T06:42:30;7.70;99.90
16801;DHT22;8518;53.236;10.384;2023-04-25T06:44:55;7.90;99.90
16801;DHT22;8518;53.236;10.384;2023-04-25T06:47:21;7.90;99.90
16801;DHT22;8518;53.236;10.384;2023-04-25T06:49:48;8.40;99.90
16801;DHT22;8518;53.236;10.384;2023-04-25T06:52:13;7.70;99.90
16801;DHT22;8518;53.236;10.384;2023-04-25T06:54:39;7.80;99.90
16801;DHT22;8518;53.236;10.384;2023-04-25T06:57:05;8.10;99.90
16801;DHT22;8518;53.236;10.384;2023-04-25T06:59:30;8.00;99.90
16801;DHT22;8518;53.236;10.384;2023-04-25T07:01:56;8.00;99.90
16801;DHT22;8518;53.236;10.384;2023-04-25T07:04:22;8.00;99.90
16801;DHT22;8518;53.236;10.384;2023-04-25T07:06:48;8.60;99.90
16801;DHT22;8518;53.236;10.384;2023-04-25T07:09:15;8.30;99.90
16801;DHT22;8518;53.236;10.384;2023-04-25T07:11:40;8.50;99.90
16801;DHT22;8518;53.236;10.384;2023-04-25T07:17:28;8.40;99.90
16801;DHT22;8518;53.236;10.384;2023-04-25T07:19:54;8.40;99.90
16801;DHT22;8518;53.236;10.384;2023-04-25T07:22:19;8.40;99.90
16801;DHT22;8518;53.236;10.384;2023-04-25T07:24:48;8.30;99.90
16801;DHT22;8518;53.236;10.384;2023-04-25T07:27:18;8.20;99.90
16801;DHT22;8518;53.236;10.384;2023-04-25T07:29:44;8.20;99.90
16801;DHT22;8518;53.236;10.384;2023-04-25T07:32:10;8.20;99.90
16801;DHT22;8518;53.236;10.384;2023-04-25T07:38:01;8.10;99.90
16801;DHT22;8518;53.236;10.384;2023-04-25T07:40:27;8.30;99.90
16801;DHT22;8518;53.236;10.384;2023-04-25T07:46:17;8.80;99.90
16801;DHT22;8518;53.236;10.384;2023-04-25T07:48:43;9.20;99.90
16801;DHT22;8518;53.236;10.384;2023-04-25T07:56:56;10.00;99.90
16801;DHT22;8518;53.236;10.384;2023-04-25T07:59:22;10.20;99.90
16801;DHT22;8518;53.236;10.384;2023-04-25T08:01:51;10.70;99.90
16801;DHT22;8518;53.236;10.384;2023-04-25T08:07:38;9.80;99.90
16801;DHT22;8518;53.236;10.384;2023-04-25T08:10:07;9.50;99.90
16801;DHT22;8518;53.236;10.384;2023-04-25T08:12:36;9.30;99.90
16801;DHT22;8518;53.236;10.384;2023-04-25T08:15:01;9.40;99.90
16801;DHT22;8518;53.236;10.384;2023-04-25T08:17:30;9.80;99.90
16801;DHT22;8518;53.236;10.384;2023-04-25T08:19:55;10.30;99.90
16801;DHT22;8518;53.236;10.384;2023-04-25T08:22:22;10.50;99.90
16801;DHT22;8518;53.236;10.384;2023-04-25T08:24:51;10.60;99.90
16801;DHT22;8518;53.236;10.384;2023-04-25T08:27:18;10.60;99.90
16801;DHT22;8518;53.236;10.384;2023-04-25T08:29:43;11.30;99.90
16801;DHT22;8518;53.236;10.384;2023-04-25T08:32:11;10.60;99.90
16801;DHT22;8518;53.236;10.384;2023-04-25T08:37:59;10.40;99.90
16801;DHT22;8518;53.236;10.384;2023-04-25T08:43:50;11.40;99.90
16801;DHT22;8518;53.236;10.384;2023-04-25T08:46:19;11.40;99.90
16801;DHT22;8518;53.236;10.384;2023-04-25T08:48:46;11.50;99.90
16801;DHT22;8518;53.236;10.384;2023-04-25T08:51:19;12.10;99.90
16801;DHT22;8518;53.236;10.384;2023-04-25T08:57:08;12.50;99.90
16801;DHT22;8518;53.236;10.384;2023-04-25T08:59:37;11.80;99.90
16801;DHT22;8518;53.236;10.384;2023-04-25T09:02:07;11.90;99.90
16801;DHT22;8518;53.236;10.384;2023-04-25T09:07:56;15.50;99.90
16801;DHT22;8518;53.236;10.384;2023-04-25T09:10:22;17.00;98.20
16801;DHT22;8518;53.236;10.384;2023-04-25T09:16:10;16.50;95.70
16801;DHT22;8518;53.236;10.384;2023-04-25T09:22:00;13.30;99.90
16801;DHT22;8518;53.236;10.384;2023-04-25T09:27:54;11.60;99.90
16801;DHT22;8518;53.236;10.384;2023-04-25T09:30:32;11.30;99.90
16801;DHT22;8518;53.236;10.384;2023-04-25T09:36:29;10.20;99.90
16801;DHT22;8518;53.236;10.384;2023-04-25T09:42:17;10.50;99.90
16801;DHT22;8518;53.236;10.384;2023-04-25T09:44:46;11.10;99.90
16801;DHT22;8518;53.236;10.384;2023-04-25T09:47:14;10.80;99.90
16801;DHT22;8518;53.236;10.384;2023-04-25T09:49:41;11.10;99.90
16801;DHT22;8518;53.236;10.384;2023-04-25T09:52:14;11.50;99.90
16801;DHT22;8518;53.236;10.384;2023-04-25T09:54:41;11.40;99.90
16801;DHT22;8518;53.236;10.384;2023-04-25T09:59:44;11.60;99.90
16801;DHT22;8518;53.236;10.384;2023-04-25T10:02:36;11.70;99.90
16801;DHT22;8518;53.236;10.384;2023-04-25T10:05:10;11.60;99.90
16801;DHT22;8518;53.236;10.384;2023-04-25T10:07:36;11.60;99.90
16801;DHT22;8518;53.236;10.384;2023-04-25T10:10:04;11.70;99.90
16801;DHT22;8518;53.236;10.384;2023-04-25T10:12:32;11.50;99.90
16801;DHT22;8518;53.236;10.384;2023-04-25T10:14:59;10.90;99.90
16801;DHT22;8518;53.236;10.384;2023-04-25T10:17:26;10.50;99.90
16801;DHT22;8518;53.236;10.384;2023-04-25T10:19:54;9.40;99.90
16801;DHT22;8518;53.236;10.384;2023-04-25T10:22:42;9.90;99.90
16801;DHT22;8518;53.236;10.384;2023-04-25T10:25:08;9.50;99.90
16801;DHT22;8518;53.236;10.384;2023-04-25T10:27:34;10.90;99.90
16801;DHT22;8518;53.236;10.384;2023-04-25T10:30:13;13.30;99.90
16801;DHT22;8518;53.236;10.384;2023-04-25T10:32:43;14.60;99.90
16801;DHT22;8518;53.236;10.384;2023-04-25T10:35:29;14.50;99.90
16801;DHT22;8518;53.236;10.384;2023-04-25T10:38:05;13.40;99.90
16801;DHT22;8518;53.236;10.384;2023-04-25T10:40:32;12.20;99.90
16801;DHT22;8518;53.236;10.384;2023-04-25T10:46:30;11.10;99.90
16801;DHT22;8518;53.236;10.384;2023-04-25T10:49:02;12.80;99.90
16801;DHT22;8518;53.236;10.384;2023-04-25T10:51:34;12.70;99.90
16801;DHT22;8518;53.236;10.384;2023-04-25T10:57:40;17.60;99.90
16801;DHT22;8518;53.236;10.384;2023-04-25T11:03:28;20.70;90.90
16801;DHT22;8518;53.236;10.384;2023-04-25T11:06:04;21.30;84.20
16801;DHT22;8518;53.236;10.384;2023-04-25T11:08:49;22.10;78.50
16801;DHT22;8518;53.236;10.384;2023-04-25T11:11:21;23.30;71.80
16801;DHT22;8518;53.236;10.384;2023-04-25T11:17:09;25.40;59.80
16801;DHT22;8518;53.236;10.384;2023-04-25T11:19:39;25.00;59.30
16801;DHT22;8518;53.236;10.384;2023-04-25T11:22:04;24.30;57.70
16801;DHT22;8518;53.236;10.384;2023-04-25T11:27:57;23.30;59.60
16801;DHT22;8518;53.236;10.384;2023-04-25T11:30:24;21.10;66.30
16801;DHT22;8518;53.236;10.384;2023-04-25T11:36:12;18.20;74.80
16801;DHT22;8518;53.236;10.384;2023-04-25T11:42:03;14.30;96.00
16801;DHT22;8518;53.236;10.384;2023-04-25T11:47:51;11.30;99.90
16801;DHT22;8518;53.236;10.384;2023-04-25T11:50:17;11.40;99.90
16801;DHT22;8518;53.236;10.384;2023-04-25T11:52:44;11.20;99.90
16801;DHT22;8518;53.236;10.384;2023-04-25T11:55:14;11.40;99.90
16801;DHT22;8518;53.236;10.384;2023-04-25T11:57:41;11.90;99.90
16801;DHT22;8518;53.236;10.384;2023-04-25T12:00:09;11.80;99.90
16801;DHT22;8518;53.236;10.384;2023-04-25T12:02:43;11.80;99.90
16801;DHT22;8518;53.236;10.384;2023-04-25T12:05:11;11.90;99.90
16801;DHT22;8518;53.236;10.384;2023-04-25T12:07:36;11.60;99.90
16801;DHT22;8518;53.236;10.384;2023-04-25T12:10:16;11.60;99.90
16801;DHT22;8518;53.236;10.384;2023-04-25T12:12:42;10.90;99.90
16801;DHT22;8518;53.236;10.384;2023-04-25T12:15:16;10.70;99.90
16801;DHT22;8518;53.236;10.384;2023-04-25T12:17:48;10.90;99.90
16801;DHT22;8518;53.236;10.384;2023-04-25T12:20:18;11.10;99.90
16801;DHT22;8518;53.236;10.384;2023-04-25T12:26:08;14.60;99.90
16801;DHT22;8518;53.236;10.384;2023-04-25T12:28:33;18.10;94.60
16801;DHT22;8518;53.236;10.384;2023-04-25T12:31:00;20.30;89.90
16801;DHT22;8518;53.236;10.384;2023-04-25T12:36:51;23.50;69.70
16801;DHT22;8518;53.236;10.384;2023-04-25T12:39:21;24.10;62.90
16801;DHT22;8518;53.236;10.384;2023-04-25T12:41:48;22.60;61.00
16801;DHT22;8518;53.236;10.384;2023-04-25T12:47:36;18.70;69.70
16801;DHT22;8518;53.236;10.384;2023-04-25T12:50:04;17.00;76.00
16801;DHT22;8518;53.236;10.384;2023-04-25T12:52:30;16.20;79.90
16801;DHT22;8518;53.236;10.384;2023-04-25T12:54:56;15.10;79.80
16801;DHT22;8518;53.236;10.384;2023-04-25T12:57:25;13.70;82.10
16801;DHT22;8518;53.236;10.384;2023-04-25T12:59:51;13.60;93.00
16801;DHT22;8518;53.236;10.384;2023-04-25T13:02:19;12.40;97.30
16801;DHT22;8518;53.236;10.384;2023-04-25T13:04:45;11.70;98.60
16801;DHT22;8518;53.236;10.384;2023-04-25T13:07:13;12.30;99.10
16801;DHT22;8518;53.236;10.384;2023-04-25T13:09:42;12.20;98.90
16801;DHT22;8518;53.236;10.384;2023-04-25T13:12:08;13.40;98.10
16801;DHT22;8518;53.236;10.384;2023-04-25T13:17:55;14.00;95.50
16801;DHT22;8518;53.236;10.384;2023-04-25T13:20:24;13.80;96.90
16801;DHT22;8518;53.236;10.384;2023-04-25T13:26:12;13.10;97.20
16801;DHT22;8518;53.236;10.384;2023-04-25T13:28:38;12.10;98.90
16801;DHT22;8518;53.236;10.384;2023-04-25T13:31:05;11.60;99.20
16801;DHT22;8518;53.236;10.384;2023-04-25T13:36:52;11.30;99.20
16801;DHT22;8518;53.236;10.384;2023-04-25T13:39:18;11.20;98.60
16801;DHT22;8518;53.236;10.384;2023-04-25T13:45:07;11.40;98.10
16801;DHT22;8518;53.236;10.384;2023-04-25T13:47:34;11.90;96.50
16801;DHT22;8518;53.236;10.384;2023-04-25T13:49:59;12.10;96.30
16801;DHT22;8518;53.236;10.384;2023-04-25T13:52:25;12.10;95.90
16801;DHT22;8518;53.236;10.384;2023-04-25T13:54:51;12.30;94.30
16801;DHT22;8518;53.236;10.384;2023-04-25T13:57:17;12.60;94.30
16801;DHT22;8518;53.236;10.384;2023-04-25T13:59:43;12.90;95.20
16801;DHT22;8518;53.236;10.384;2023-04-25T14:02:11;13.20;94.80
16801;DHT22;8518;53.236;10.384;2023-04-25T14:04:37;13.30;94.10
16801;DHT22;8518;53.236;10.384;2023-04-25T14:07:02;13.40;93.70
16801;DHT22;8518;53.236;10.384;2023-04-25T14:09:29;13.30;94.60
16801;DHT22;8518;53.236;10.384;2023-04-25T14:11:55;13.00;95.30
16801;DHT22;8518;53.236;10.384;2023-04-25T14:17:42;13.20;95.40
16801;DHT22;8518;53.236;10.384;2023-04-25T14:20:08;13.80;96.30
16801;DHT22;8518;53.236;10.384;2023-04-25T14:22:36;13.70;95.30
16801;DHT22;8518;53.236;10.384;2023-04-25T14:25:02;13.60;95.50
16801;DHT22;8518;53.236;10.384;2023-04-25T14:27:28;13.20;96.30
16801;DHT22;8518;53.236;10.384;2023-04-25T14:29:54;12.90;98.00
16801;DHT22;8518;53.236;10.384;2023-04-25T14:32:19;12.50;97.40
16801;DHT22;8518;53.236;10.384;2023-04-25T14:34:45;11.90;99.90
16801;DHT22;8518;53.236;10.384;2023-04-25T14:37:11;11.70;99.90
16801;DHT22;8518;53.236;10.384;2023-04-25T14:39:36;11.00;99.90
16801;DHT22;8518;53.236;10.384;2023-04-25T14:42:03;11.10;99.90
16801;DHT22;8518;53.236;10.384;2023-04-25T14:47:51;11.50;99.90
16801;DHT22;8518;53.236;10.384;2023-04-25T14:50:18;11.90;99.90
16801;DHT22;8518;53.236;10.384;2023-04-25T14:56:05;12.40;99.90
16801;DHT22;8518;53.236;10.384;2023-04-25T14:58:32;12.50;99.90
16801;DHT22;8518;53.236;10.384;2023-04-25T15:00:59;13.10;99.90
16801;DHT22;8518;53.236;10.384;2023-04-25T15:06:46;12.20;99.90
16801;DHT22;8518;53.236;10.384;2023-04-25T15:09:12;11.40;99.90
16801;DHT22;8518;53.236;10.384;2023-04-25T15:11:38;12.10;99.90
16801;DHT22;8518;53.236;10.384;2023-04-25T15:17:30;11.50;99.90
16801;DHT22;8518;53.236;10.384;2023-04-25T15:19:56;12.40;99.90
16801;DHT22;8518;53.236;10.384;2023-04-25T15:22:22;11.10;99.90
16801;DHT22;8518;53.236;10.384;2023-04-25T15:24:47;11.40;99.90
16801;DHT22;8518;53.236;10.384;2023-04-25T15:27:13;11.00;99.90
16801;DHT22;8518;53.236;10.384;2023-04-25T15:29:39;11.10;99.90
16801;DHT22;8518;53.236;10.384;2023-04-25T15:32:05;11.20;99.90
16801;DHT22;8518;53.236;10.384;2023-04-25T15:37:53;11.10;99.90
16801;DHT22;8518;53.236;10.384;2023-04-25T15:40:19;10.90;99.90
16801;DHT22;8518;53.236;10.384;2023-04-25T15:46:06;10.50;99.90
16801;DHT22;8518;53.236;10.384;2023-04-25T15:48:32;10.30;99.90
16801;DHT22;8518;53.236;10.384;2023-04-25T15:50:58;10.40;99.90
16801;DHT22;8518;53.236;10.384;2023-04-25T15:56:47;10.20;99.90
16801;DHT22;8518;53.236;10.384;2023-04-25T15:59:13;10.30;99.90
16801;DHT22;8518;53.236;10.384;2023-04-25T16:01:39;10.50;99.90
16801;DHT22;8518;53.236;10.384;2023-04-25T16:07:26;10.70;99.90
16801;DHT22;8518;53.236;10.384;2023-04-25T16:09:52;10.60;99.90
16801;DHT22;8518;53.236;10.384;2023-04-25T16:12:21;10.90;99.90
16801;DHT22;8518;53.236;10.384;2023-04-25T16:14:46;10.60;99.90
16801;DHT22;8518;53.236;10.384;2023-04-25T16:17:12;10.60;99.90
16801;DHT22;8518;53.236;10.384;2023-04-25T16:19:38;10.60;99.90
16801;DHT22;8518;53.236;10.384;2023-04-25T16:22:03;10.50;99.90
16801;DHT22;8518;53.236;10.384;2023-04-25T16:27:51;10.50;99.90
16801;DHT22;8518;53.236;10.384;2023-04-25T16:30:17;10.60;99.90
16801;DHT22;8518;53.236;10.384;2023-04-25T16:32:43;10.10;99.90
16801;DHT22;8518;53.236;10.384;2023-04-25T16:35:10;9.80;99.90
16801;DHT22;8518;53.236;10.384;2023-04-25T16:37:36;9.60;99.90
16801;DHT22;8518;53.236;10.384;2023-04-25T16:40:02;9.90;99.90
16801;DHT22;8518;53.236;10.384;2023-04-25T16:42:27;9.50;99.90
16801;DHT22;8518;53.236;10.384;2023-04-25T16:44:53;9.30;99.90
16801;DHT22;8518;53.236;10.384;2023-04-25T16:47:18;10.80;99.90
16801;DHT22;8518;53.236;10.384;2023-04-25T16:49:44;8.90;99.90
16801;DHT22;8518;53.236;10.384;2023-04-25T16:52:11;8.60;99.90
16801;DHT22;8518;53.236;10.384;2023-04-25T16:58:02;8.40;99.90
16801;DHT22;8518;53.236;10.384;2023-04-25T17:03:49;8.70;99.90
16801;DHT22;8518;53.236;10.384;2023-04-25T17:06:15;8.80;99.90
16801;DHT22;8518;53.236;10.384;2023-04-25T17:08:41;8.80;99.90
16801;DHT22;8518;53.236;10.384;2023-04-25T17:11:07;8.70;99.90
16801;DHT22;8518;53.236;10.384;2023-04-25T17:16:56;8.50;99.90
16801;DHT22;8518;53.236;10.384;2023-04-25T17:19:21;8.30;99.90
16801;DHT22;8518;53.236;10.384;2023-04-25T17:21:47;8.30;99.90
16801;DHT22;8518;53.236;10.384;2023-04-25T17:27:35;8.10;99.90
16801;DHT22;8518;53.236;10.384;2023-04-25T17:30:02;7.90;99.90
16801;DHT22;8518;53.236;10.384;2023-04-25T17:32:28;7.80;99.90
16801;DHT22;8518;53.236;10.384;2023-04-25T17:34:54;7.80;99.90
16801;DHT22;8518;53.236;10.384;2023-04-25T17:37:21;7.80;99.90
16801;DHT22;8518;53.236;10.384;2023-04-25T17:39:47;7.70;99.90
16801;DHT22;8518;53.236;10.384;2023-04-25T17:42:13;7.70;99.90
16801;DHT22;8518;53.236;10.384;2023-04-25T17:44:47;7.70;99.90
16801;DHT22;8518;53.236;10.384;2023-04-25T17:47:13;7.70;99.90
16801;DHT22;8518;53.236;10.384;2023-04-25T17:49:39;7.70;99.90
16801;DHT22;8518;53.236;10.384;2023-04-25T17:52:05;7.80;99.90
16801;DHT22;8518;53.236;10.384;2023-04-25T17:57:54;7.60;99.90
16801;DHT22;8518;53.236;10.384;2023-04-25T18:00:23;7.60;99.90
16801;DHT22;8518;53.236;10.384;2023-04-25T18:06:14;7.40;99.90
16801;DHT22;8518;53.236;10.384;2023-04-25T18:08:40;7.20;99.90
16801;DHT22;8518;53.236;10.384;2023-04-25T18:11:05;7.10;99.90
16801;DHT22;8518;53.236;10.384;2023-04-25T18:16:53;6.90;99.90
16801;DHT22;8518;53.236;10.384;2023-04-25T18:19:19;6.70;99.90
16801;DHT22;8518;53.236;10.384;2023-04-25T18:21:53;6.90;99.90
16801;DHT22;8518;53.236;10.384;2023-04-25T18:27:42;6.40;99.90
16801;DHT22;8518;53.236;10.384;2023-04-25T18:33:31;6.30;99.90
16801;DHT22;8518;53.236;10.384;2023-04-25T18:35:57;6.20;99.90
16801;DHT22;8518;53.236;10.384;2023-04-25T18:38:23;6.20;99.90
16801;DHT22;8518;53.236;10.384;2023-04-25T18:40:49;6.10;99.90
16801;DHT22;8518;53.236;10.384;2023-04-25T18:46:36;6.10;99.90
16801;DHT22;8518;53.236;10.384;2023-04-25T18:49:04;6.30;99.90
16801;DHT22;8518;53.236;10.384;2023-04-25T18:51:30;6.10;99.90
16801;DHT22;8518;53.236;10.384;2023-04-25T18:57:28;6.30;99.90
16801;DHT22;8518;53.236;10.384;2023-04-25T18:59:53;6.40;99.90
16801;DHT22;8518;53.236;10.384;2023-04-25T19:02:19;6.40;99.90
16801;DHT22;8518;53.236;10.384;2023-04-25T19:04:44;6.40;99.90
16801;DHT22;8518;53.236;10.384;2023-04-25T19:07:11;6.60;99.90
16801;DHT22;8518;53.236;10.384;2023-04-25T19:09:36;6.30;99.90
16801;DHT22;8518;53.236;10.384;2023-04-25T19:12:02;6.20;99.90
16801;DHT22;8518;53.236;10.384;2023-04-25T19:17:50;6.00;99.90
16801;DHT22;8518;53.236;10.384;2023-04-25T19:20:16;6.00;99.90
16801;DHT22;8518;53.236;10.384;2023-04-25T19:22:42;6.10;99.90
16801;DHT22;8518;53.236;10.384;2023-04-25T19:25:08;5.80;99.90
16801;DHT22;8518;53.236;10.384;2023-04-25T19:27:33;5.80;99.90
16801;DHT22;8518;53.236;10.384;2023-04-25T19:29:59;5.70;99.90
16801;DHT22;8518;53.236;10.384;2023-04-25T19:32:33;6.00;99.90
16801;DHT22;8518;53.236;10.384;2023-04-25T19:34:59;5.60;99.90
16801;DHT22;8518;53.236;10.384;2023-04-25T19:37:25;5.60;99.90
16801;DHT22;8518;53.236;10.384;2023-04-25T19:39:51;5.60;99.90
16801;DHT22;8518;53.236;10.384;2023-04-25T19:42:16;5.60;99.90
16801;DHT22;8518;53.236;10.384;2023-04-25T19:44:46;6.10;99.90
16801;DHT22;8518;53.236;10.384;2023-04-25T19:47:12;5.60;99.90
16801;DHT22;8518;53.236;10.384;2023-04-25T19:49:37;5.60;99.90
16801;DHT22;8518;53.236;10.384;2023-04-25T19:52:11;7.20;99.90
16801;DHT22;8518;53.236;10.384;2023-04-25T19:54:41;5.80;99.90
16801;DHT22;8518;53.236;10.384;2023-04-25T19:57:07;5.80;99.90
16801;DHT22;8518;53.236;10.384;2023-04-25T19:59:33;5.80;99.90
16801;DHT22;8518;53.236;10.384;2023-04-25T20:01:59;5.80;99.90
16801;DHT22;8518;53.236;10.384;2023-04-25T20:07:47;5.80;99.90
16801;DHT22;8518;53.236;10.384;2023-04-25T20:10:13;5.70;99.90
16801;DHT22;8518;53.236;10.384;2023-04-25T20:12:40;5.80;99.90
16801;DHT22;8518;53.236;10.384;2023-04-25T20:15:10;7.00;99.90
16801;DHT22;8518;53.236;10.384;2023-04-25T20:17:37;5.50;99.90
16801;DHT22;8518;53.236;10.384;2023-04-25T20:20:03;5.40;99.90